aviador You're here:

KSPF Decoded Metar

SPEARFISH/CLYDE in SD, USA
Report Time2018-04-27 02:55:00
UTC Time2018-04-27 03:08:45
Flight Rules vfr VFR
Wind240° at 06 kt
W.Decomp.*RWY 22: 5.9 kt HW 0.9 kt RCW
RWY 26: 5.1 kt HW 3.1 kt LCW
RWY 31: 0.9 kt HW 5.9 kt LCW
W.Rank240° ranks 16
Current wind is below 240° avg. (8.4)
Visibility9999 m
Phenomena:N/A
Clouds:N/A
Expected CloudBase > 3,200 ft AGL from Temp-Dew spread
CeilingNone
Temp08°C (ISA +1)
Dew Point00°C (57% RH)
AAT3.9°C
QNH1020 hPa
Density Alt3,842 ft
Elevation3,898 ft
Report Wrong Elevation
Raw Report
KSPF 270255Z AUTO 24006KT 10SM CLR 08/M00 A3013 RMK AO2=

Extra information for KSPF:More info

Metar Taf Metar & Taf Last 4 Metars F.Rules Stats Wind Profile Meteogram Temp Stats Airport Information Weather charts Add Link Nearby VenuesMetar ALERT Operation Metar Decoded Social comments

AIRNAV info for KSPF